Time;durP1;ratioP1;P1;durP2;ratioP2;P2;SDS_P1;SDS_P2;PMS_P1;PMS_P2;Temp;Humidity;BMP_temperature;BMP_pressure;BME280_temperature;BME280_humidity;BME280_pressure;Samples;Min_cycle;Max_cycle;Signal;HPM_P1;HPM_P2
2023/06/06 00:00:14;;;;;;;;;;;20.50;52.60;;;;;;5094098;28;19920;-70
2023/06/06 00:02:42;;;;;;;;;;;20.50;52.60;;;;;;5094356;28;20011;-69
2023/06/06 00:05:08;;;;;;;;;;;20.50;52.60;;;;;;5095469;28;20256;-69
2023/06/06 00:07:35;;;;;;;;;;;20.50;52.60;;;;;;5093951;28;19965;-69
2023/06/06 00:10:01;;;;;;;;;;;20.50;52.60;;;;;;5094195;28;20347;-70
2023/06/06 00:12:28;;;;;;;;;;;20.50;52.60;;;;;;5094073;28;19920;-70
2023/06/06 00:14:54;;;;;;;;;;;20.40;52.50;;;;;;5093893;28;19916;-70
2023/06/06 00:17:20;;;;;;;;;;;20.40;52.50;;;;;;5093747;28;19927;-70
2023/06/06 00:19:47;;;;;;;;;;;20.40;52.50;;;;;;5093872;28;19920;-70
2023/06/06 00:22:14;;;;;;;;;;;20.40;52.60;;;;;;5093690;28;20154;-70
2023/06/06 00:24:39;;;;;;;;;;;20.40;52.50;;;;;;5093788;28;19916;-70
2023/06/06 00:27:05;;;;;;;;;;;20.40;52.50;;;;;;5094011;28;20034;-70
2023/06/06 00:29:31;;;;;;;;;;;20.40;52.50;;;;;;5093508;28;20389;-70
2023/06/06 00:31:56;;;;;;;;;;;20.40;52.60;;;;;;5093548;28;20278;-70
2023/06/06 00:34:22;;;;;;;;;;;20.30;52.50;;;;;;5093702;28;19999;-70
2023/06/06 00:36:47;;;;;;;;;;;20.40;52.50;;;;;;5093709;28;19923;-70
2023/06/06 00:39:12;;;;;;;;;;;20.30;52.50;;;;;;5093064;28;20290;-70
2023/06/06 00:41:38;;;;;;;;;;;20.30;52.50;;;;;;5093617;28;19923;-70
2023/06/06 00:44:03;;;;;;;;;;;20.40;52.50;;;;;;5093204;28;20003;-70
2023/06/06 00:46:29;;;;;;;;;;;20.30;52.50;;;;;;5093158;28;19923;-69
2023/06/06 00:48:55;;;;;;;;;;;20.30;52.50;;;;;;5093389;28;19916;-70
2023/06/06 00:51:21;;;;;;;;;;;20.30;52.60;;;;;;5094432;28;20363;-70
2023/06/06 00:53:47;;;;;;;;;;;20.30;53.30;;;;;;5094312;28;19916;-70
2023/06/06 00:56:13;;;;;;;;;;;20.20;52.50;;;;;;5093393;28;19926;-70
2023/06/06 00:58:40;;;;;;;;;;;20.30;52.60;;;;;;5093160;28;20385;-70
2023/06/06 01:01:06;;;;;;;;;;;20.20;52.50;;;;;;5094115;28;19975;-70
2023/06/06 01:03:33;;;;;;;;;;;20.20;52.50;;;;;;5092824;28;19915;-70
2023/06/06 01:05:58;;;;;;;;;;;20.20;52.50;;;;;;5093111;28;19939;-69
2023/06/06 01:08:24;;;;;;;;;;;20.20;52.50;;;;;;5094306;28;19916;-70
2023/06/06 01:10:51;;;;;;;;;;;20.20;52.50;;;;;;5093851;28;20007;-70
2023/06/06 01:16:05;;;;;;;;;;;20.20;52.60;;;;;;5110277;27;19930;-69
2023/06/06 01:18:31;;;;;;;;;;;20.20;52.60;;;;;;5109147;28;19951;-69
2023/06/06 01:20:58;;;;;;;;;;;20.20;52.60;;;;;;5109209;28;19965;-70
2023/06/06 01:23:23;;;;;;;;;;;20.10;52.50;;;;;;5108931;28;20014;-70
2023/06/06 01:25:49;;;;;;;;;;;20.20;52.50;;;;;;5108860;28;19958;-70
2023/06/06 01:28:15;;;;;;;;;;;20.10;52.50;;;;;;5109160;28;19923;-70
2023/06/06 01:30:42;;;;;;;;;;;20.10;52.50;;;;;;5143075;27;20359;-69
2023/06/06 01:35:59;;;;;;;;;;;20.10;52.60;;;;;;5089969;28;19908;-70
2023/06/06 01:38:30;;;;;;;;;;;20.00;52.50;;;;;;5088984;28;20007;-70
2023/06/06 01:40:57;;;;;;;;;;;20.00;52.50;;;;;;5088943;28;20010;-70
2023/06/06 01:43:24;;;;;;;;;;;20.00;52.50;;;;;;5088876;28;20062;-70
2023/06/06 01:45:50;;;;;;;;;;;20.00;52.50;;;;;;5088447;28;19917;-70
2023/06/06 01:48:16;;;;;;;;;;;20.00;52.50;;;;;;5088780;28;20014;-70
2023/06/06 01:50:43;;;;;;;;;;;20.00;52.50;;;;;;5088733;28;20338;-70
2023/06/06 01:53:08;;;;;;;;;;;20.00;52.50;;;;;;5088478;28;20371;-70
2023/06/06 01:55:36;;;;;;;;;;;20.00;52.50;;;;;;5088249;28;19983;-70
2023/06/06 01:58:03;;;;;;;;;;;20.00;52.50;;;;;;5088151;28;19962;-70
2023/06/06 02:00:29;;;;;;;;;;;19.90;52.50;;;;;;5088276;28;19971;-70
2023/06/06 02:02:54;;;;;;;;;;;19.90;52.50;;;;;;5088486;28;20272;-70
2023/06/06 02:05:20;;;;;;;;;;;20.00;52.60;;;;;;5089473;28;19916;-70
2023/06/06 02:07:46;;;;;;;;;;;19.90;52.50;;;;;;5088090;28;19916;-70
2023/06/06 02:10:12;;;;;;;;;;;19.90;52.50;;;;;;5087986;28;19916;-70
2023/06/06 02:12:37;;;;;;;;;;;19.90;52.50;;;;;;5089148;28;19916;-70
2023/06/06 02:15:05;;;;;;;;;;;19.90;52.50;;;;;;5087998;28;20017;-70
2023/06/06 02:17:30;;;;;;;;;;;19.90;52.50;;;;;;5089144;28;19916;-70
2023/06/06 02:19:56;;;;;;;;;;;19.90;52.60;;;;;;5087933;28;19923;-70
2023/06/06 02:22:21;;;;;;;;;;;19.90;52.60;;;;;;5089116;28;19917;-70
2023/06/06 02:24:49;;;;;;;;;;;19.80;52.50;;;;;;5088141;28;19962;-70
2023/06/06 02:27:15;;;;;;;;;;;19.80;52.60;;;;;;5087606;28;19923;-70
2023/06/06 02:29:40;;;;;;;;;;;19.80;52.60;;;;;;5088088;28;19925;-70
2023/06/06 02:32:06;;;;;;;;;;;19.80;52.60;;;;;;5089072;28;20174;-70
2023/06/06 02:34:32;;;;;;;;;;;19.80;52.60;;;;;;5087253;28;19947;-70
2023/06/06 02:36:59;;;;;;;;;;;19.80;52.60;;;;;;5087450;28;19916;-70
2023/06/06 02:39:25;;;;;;;;;;;19.80;52.60;;;;;;5088743;28;19916;-70
2023/06/06 02:41:51;;;;;;;;;;;19.80;52.70;;;;;;5087502;28;19939;-70
2023/06/06 02:44:17;;;;;;;;;;;19.80;52.60;;;;;;5087625;28;19986;-70
2023/06/06 02:46:43;;;;;;;;;;;19.80;52.70;;;;;;5076723;28;20321;-70
2023/06/06 02:49:09;;;;;;;;;;;19.80;52.70;;;;;;5073896;28;19916;-70
2023/06/06 02:51:36;;;;;;;;;;;19.80;52.70;;;;;;5074175;28;19923;-70
2023/06/06 02:54:02;;;;;;;;;;;19.70;52.60;;;;;;5075011;28;19920;-70
2023/06/06 02:56:28;;;;;;;;;;;19.70;52.60;;;;;;5073761;28;19931;-70
2023/06/06 02:58:53;;;;;;;;;;;19.70;52.60;;;;;;5074782;28;19917;-70
2023/06/06 03:01:21;;;;;;;;;;;19.70;52.70;;;;;;5073945;28;20406;-70
2023/06/06 03:03:46;;;;;;;;;;;19.70;52.70;;;;;;5073541;28;20315;-70
2023/06/06 03:06:15;;;;;;;;;;;19.70;52.70;;;;;;5074933;28;19962;-70
2023/06/06 03:08:41;;;;;;;;;;;19.60;52.60;;;;;;5073760;28;19966;-70
2023/06/06 03:11:06;;;;;;;;;;;19.60;52.60;;;;;;5073430;28;19943;-70
2023/06/06 03:13:32;;;;;;;;;;;19.60;52.60;;;;;;5073569;28;19920;-70
2023/06/06 03:15:57;;;;;;;;;;;19.60;52.70;;;;;;5074862;28;20279;-70
2023/06/06 03:18:24;;;;;;;;;;;19.60;52.70;;;;;;5074538;28;20015;-70
2023/06/06 03:20:51;;;;;;;;;;;19.60;52.70;;;;;;5073239;28;19916;-70
2023/06/06 03:23:17;;;;;;;;;;;19.60;52.70;;;;;;5073484;28;19917;-70
2023/06/06 03:25:43;;;;;;;;;;;19.60;52.70;;;;;;5073297;28;20402;-70
2023/06/06 03:28:09;;;;;;;;;;;19.60;52.70;;;;;;5073465;28;19938;-70
2023/06/06 03:30:34;;;;;;;;;;;19.60;52.70;;;;;;5073347;28;19916;-70
2023/06/06 03:33:00;;;;;;;;;;;19.60;53.00;;;;;;5074524;28;20383;-70
2023/06/06 03:35:26;;;;;;;;;;;19.60;52.70;;;;;;5072798;28;19920;-70
2023/06/06 03:37:55;;;;;;;;;;;19.60;52.70;;;;;;5073291;28;19917;-70
2023/06/06 03:40:22;;;;;;;;;;;19.50;52.70;;;;;;5073184;28;20343;-70
2023/06/06 03:42:48;;;;;;;;;;;19.60;52.70;;;;;;5072913;28;19917;-70
2023/06/06 03:45:13;;;;;;;;;;;19.50;52.70;;;;;;5072761;28;19966;-70
2023/06/06 03:47:39;;;;;;;;;;;19.50;52.70;;;;;;5074185;28;20283;-70
2023/06/06 03:50:05;;;;;;;;;;;19.50;52.70;;;;;;5072926;28;19923;-70
2023/06/06 03:52:30;;;;;;;;;;;19.50;52.70;;;;;;5072999;28;19916;-70
2023/06/06 03:54:56;;;;;;;;;;;19.50;52.80;;;;;;5072602;28;19920;-70
2023/06/06 03:57:21;;;;;;;;;;;19.50;52.80;;;;;;5071608;28;19916;-70
2023/06/06 03:59:47;;;;;;;;;;;19.50;52.80;;;;;;5073645;28;19916;-70
2023/06/06 04:02:12;;;;;;;;;;;19.50;52.80;;;;;;5072475;28;19916;-70
2023/06/06 04:04:40;;;;;;;;;;;19.50;52.80;;;;;;5073782;28;19924;-70
2023/06/06 04:07:06;;;;;;;;;;;19.50;52.80;;;;;;5072401;28;20010;-70
2023/06/06 04:09:31;;;;;;;;;;;19.50;52.80;;;;;;5073526;28;20049;-70
2023/06/06 04:11:57;;;;;;;;;;;19.50;52.80;;;;;;5072448;28;19921;-70
2023/06/06 04:14:22;;;;;;;;;;;19.50;52.80;;;;;;5073343;28;20019;-70
2023/06/06 04:16:48;;;;;;;;;;;19.50;52.80;;;;;;5073435;28;19927;-70
2023/06/06 04:19:13;;;;;;;;;;;19.50;52.80;;;;;;5073411;28;19916;-70
2023/06/06 04:21:39;;;;;;;;;;;19.40;52.80;;;;;;5071977;28;19987;-70
2023/06/06 04:24:04;;;;;;;;;;;19.40;52.80;;;;;;5088931;28;19958;-70
2023/06/06 04:26:31;;;;;;;;;;;19.40;52.80;;;;;;5071977;28;19923;-70
2023/06/06 04:28:59;;;;;;;;;;;19.40;52.80;;;;;;5072329;28;20102;-70
2023/06/06 04:31:25;;;;;;;;;;;19.40;52.90;;;;;;5071859;28;20463;-70
2023/06/06 04:33:54;;;;;;;;;;;19.40;53.00;;;;;;5088390;28;19921;-70
2023/06/06 04:36:21;;;;;;;;;;;19.40;52.90;;;;;;5071798;28;20379;-70
2023/06/06 04:38:48;;;;;;;;;;;19.40;52.90;;;;;;5073162;28;20299;-70
2023/06/06 04:41:16;;;;;;;;;;;19.40;52.90;;;;;;5071993;28;19916;-70
2023/06/06 04:43:42;;;;;;;;;;;19.40;52.90;;;;;;5071657;28;19917;-70
2023/06/06 04:46:08;;;;;;;;;;;19.40;53.00;;;;;;5071896;28;19982;-70
2023/06/06 04:48:33;;;;;;;;;;;19.40;52.90;;;;;;5073075;28;19963;-70
2023/06/06 04:50:59;;;;;;;;;;;19.30;52.90;;;;;;5072915;28;19916;-70
2023/06/06 04:53:25;;;;;;;;;;;19.40;53.00;;;;;;5072847;28;19916;-70
2023/06/06 04:55:52;;;;;;;;;;;19.40;53.00;;;;;;5071478;28;20299;-70
2023/06/06 04:58:19;;;;;;;;;;;19.40;53.00;;;;;;5071722;28;20309;-70
2023/06/06 05:00:46;;;;;;;;;;;19.40;53.00;;;;;;5071616;28;20379;-70
2023/06/06 05:03:16;;;;;;;;;;;19.30;53.70;;;;;;5071344;28;19923;-70
2023/06/06 05:05:41;;;;;;;;;;;19.30;52.90;;;;;;5072827;28;19923;-70
2023/06/06 05:08:07;;;;;;;;;;;19.30;52.90;;;;;;5072559;28;19916;-70
2023/06/06 05:10:32;;;;;;;;;;;19.30;52.90;;;;;;5088016;28;20372;-70
2023/06/06 05:12:58;;;;;;;;;;;19.30;52.90;;;;;;5072501;28;19941;-70
2023/06/06 05:15:23;;;;;;;;;;;19.30;53.00;;;;;;5071384;28;20313;-70
2023/06/06 05:17:56;;;;;;;;;;;19.30;52.90;;;;;;5071499;28;19923;-70
2023/06/06 05:20:23;;;;;;;;;;;19.30;53.00;;;;;;5072505;28;20355;-70
2023/06/06 05:22:50;;;;;;;;;;;19.30;52.90;;;;;;5071404;28;19978;-70
2023/06/06 05:25:16;;;;;;;;;;;19.30;52.90;;;;;;5071557;28;19916;-70
2023/06/06 05:27:41;;;;;;;;;;;19.30;53.00;;;;;;5070117;28;20291;-70
2023/06/06 05:30:07;;;;;;;;;;;19.30;52.90;;;;;;5069765;28;19929;-73
2023/06/06 05:32:32;;;;;;;;;;;19.30;53.80;;;;;;5068882;28;20342;-72
2023/06/06 05:35:01;;;;;;;;;;;19.30;53.10;;;;;;5069708;28;20386;-73
2023/06/06 05:37:28;;;;;;;;;;;19.30;53.00;;;;;;5069269;28;19974;-72
2023/06/06 05:39:53;;;;;;;;;;;19.30;53.20;;;;;;5064862;28;19936;-73
2023/06/06 05:42:19;;;;;;;;;;;19.30;53.20;;;;;;5067708;28;19921;-72
2023/06/06 05:44:44;;;;;;;;;;;19.40;53.30;;;;;;5064440;28;19920;-73
2023/06/06 05:47:11;;;;;;;;;;;19.40;53.30;;;;;;5067184;28;19966;-70
2023/06/06 05:49:37;;;;;;;;;;;19.40;53.30;;;;;;5063334;28;20314;-71
2023/06/06 05:52:04;;;;;;;;;;;19.40;53.40;;;;;;5045475;28;19928;-71
2023/06/06 05:54:29;;;;;;;;;;;19.40;53.50;;;;;;5060266;28;20366;-70
2023/06/06 05:56:56;;;;;;;;;;;19.40;53.50;;;;;;5061213;28;19920;-69
2023/06/06 05:59:22;;;;;;;;;;;19.40;53.60;;;;;;5062841;28;20185;-65
2023/06/06 06:01:49;;;;;;;;;;;19.50;53.70;;;;;;5065206;28;19985;-68
2023/06/06 06:04:17;;;;;;;;;;;19.50;53.80;;;;;;5063279;28;20327;-68
2023/06/06 06:06:46;;;;;;;;;;;19.50;54.10;;;;;;5063638;28;19986;-74
2023/06/06 06:09:12;;;;;;;;;;;19.50;54.20;;;;;;5063802;28;19921;-69
2023/06/06 06:11:39;;;;;;;;;;;19.50;54.10;;;;;;5051279;28;19982;-68
2023/06/06 06:14:04;;;;;;;;;;;19.50;54.20;;;;;;5048769;28;19982;-67
2023/06/06 06:16:30;;;;;;;;;;;19.50;54.20;;;;;;5059970;28;19967;-71
2023/06/06 06:18:55;;;;;;;;;;;19.50;54.10;;;;;;5065107;28;19921;-69
2023/06/06 06:21:21;;;;;;;;;;;19.50;54.10;;;;;;5058506;28;19924;-74
2023/06/06 06:23:48;;;;;;;;;;;19.60;54.30;;;;;;5047998;28;19921;-74
2023/06/06 06:26:13;;;;;;;;;;;19.60;54.30;;;;;;5052394;28;19932;-68
2023/06/06 06:28:39;;;;;;;;;;;19.60;54.30;;;;;;5054992;28;19921;-70
2023/06/06 06:31:04;;;;;;;;;;;19.60;54.40;;;;;;5064123;28;19949;-70
2023/06/06 06:33:33;;;;;;;;;;;19.60;54.40;;;;;;5055006;28;19929;-69
2023/06/06 06:35:59;;;;;;;;;;;19.60;54.30;;;;;;5062395;28;19951;-69
2023/06/06 06:38:25;;;;;;;;;;;19.60;54.30;;;;;;5055950;28;19933;-70
2023/06/06 06:40:51;;;;;;;;;;;19.60;54.30;;;;;;5054155;28;20418;-67
2023/06/06 06:43:16;;;;;;;;;;;19.60;54.20;;;;;;5055551;28;19971;-68
2023/06/06 06:45:42;;;;;;;;;;;19.60;54.50;;;;;;5075962;28;19930;-67
2023/06/06 06:48:07;;;;;;;;;;;19.60;54.60;;;;;;5061212;28;20435;-72
2023/06/06 06:50:33;;;;;;;;;;;19.60;55.30;;;;;;5062089;28;20407;-71
2023/06/06 06:52:58;;;;;;;;;;;19.60;54.70;;;;;;5073158;28;19968;-71
2023/06/06 06:55:25;;;;;;;;;;;19.70;54.90;;;;;;5056370;28;19924;-73
2023/06/06 06:57:51;;;;;;;;;;;19.70;55.10;;;;;;5059289;28;20038;-73
2023/06/06 07:00:19;;;;;;;;;;;19.70;55.40;;;;;;5076740;28;20355;-71
2023/06/06 07:02:46;;;;;;;;;;;19.70;55.20;;;;;;5057984;28;19924;-70
2023/06/06 07:05:11;;;;;;;;;;;19.70;55.30;;;;;;5075310;28;19928;-70
2023/06/06 07:07:53;;;;;;;;;;;19.80;55.50;;;;;;5059915;28;19924;-70
2023/06/06 07:10:19;;;;;;;;;;;19.80;55.50;;;;;;5073970;28;19924;-70
2023/06/06 07:12:48;;;;;;;;;;;19.80;55.50;;;;;;5060173;28;20430;-73
2023/06/06 07:15:14;;;;;;;;;;;19.80;55.60;;;;;;5070679;28;19924;-69
2023/06/06 07:17:42;;;;;;;;;;;19.80;55.60;;;;;;5074097;28;19936;-69
2023/06/06 07:20:08;;;;;;;;;;;19.80;55.70;;;;;;5061664;28;19921;-69
2023/06/06 07:22:37;;;;;;;;;;;19.80;55.80;;;;;;5065651;28;19982;-75
2023/06/06 07:25:03;;;;;;;;;;;19.90;56.00;;;;;;5071133;28;19920;-70
2023/06/06 07:27:33;;;;;;;;;;;19.90;56.00;;;;;;5053923;28;19938;-69
2023/06/06 07:29:59;;;;;;;;;;;19.90;56.80;;;;;;5058236;28;20625;-74
2023/06/06 07:32:25;;;;;;;;;;;19.90;56.10;;;;;;5075004;28;19924;-68
2023/06/06 07:34:50;;;;;;;;;;;20.00;56.40;;;;;;5075128;28;19928;-69
2023/06/06 07:37:16;;;;;;;;;;;20.00;56.50;;;;;;5063076;28;19924;-69
2023/06/06 07:39:43;;;;;;;;;;;20.00;56.40;;;;;;5056902;28;19920;-71
2023/06/06 07:42:09;;;;;;;;;;;20.00;56.40;;;;;;5060783;28;19974;-74
2023/06/06 07:44:34;;;;;;;;;;;20.00;56.50;;;;;;5076296;28;19947;-73
2023/06/06 07:47:00;;;;;;;;;;;20.00;56.60;;;;;;5076865;28;19931;-73
2023/06/06 07:49:25;;;;;;;;;;;20.00;56.60;;;;;;5075671;28;20437;-72
2023/06/06 07:51:51;;;;;;;;;;;20.00;56.50;;;;;;5072298;28;19925;-70
2023/06/06 07:54:16;;;;;;;;;;;20.00;56.60;;;;;;5057372;28;19924;-71
2023/06/06 07:56:43;;;;;;;;;;;20.00;56.70;;;;;;5055285;28;19924;-72
2023/06/06 07:59:09;;;;;;;;;;;20.00;56.80;;;;;;5073435;28;19924;-73
2023/06/06 08:01:35;;;;;;;;;;;20.00;56.90;;;;;;5055371;28;20472;-76
2023/06/06 08:04:01;;;;;;;;;;;20.00;56.70;;;;;;5054200;28;19921;-79
2023/06/06 08:06:27;;;;;;;;;;;20.00;56.80;;;;;;5067493;28;20026;-71
2023/06/06 08:08:53;;;;;;;;;;;20.10;56.80;;;;;;5070459;28;20599;-68
2023/06/06 08:11:19;;;;;;;;;;;20.10;57.10;;;;;;5052455;28;19991;-71
2023/06/06 08:13:45;;;;;;;;;;;20.10;57.50;;;;;;5053192;28;19931;-74
2023/06/06 08:16:11;;;;;;;;;;;20.10;57.50;;;;;;5053097;28;20568;-68
2023/06/06 08:18:37;;;;;;;;;;;20.10;57.50;;;;;;5055726;28;20438;-67
2023/06/06 08:21:03;;;;;;;;;;;20.20;57.30;;;;;;5061304;28;20374;-69
2023/06/06 08:23:28;;;;;;;;;;;20.20;57.20;;;;;;5056028;28;19924;-74
2023/06/06 08:25:55;;;;;;;;;;;20.30;57.10;;;;;;5074938;28;19931;-70
2023/06/06 08:28:22;;;;;;;;;;;20.30;57.10;;;;;;5056897;28;19992;-69
2023/06/06 08:30:47;;;;;;;;;;;20.30;57.00;;;;;;5060202;28;19924;-69
2023/06/06 08:33:13;;;;;;;;;;;20.40;56.90;;;;;;5052506;28;20288;-69
2023/06/06 08:35:38;;;;;;;;;;;20.40;56.60;;;;;;5068486;28;19934;-68
2023/06/06 08:38:04;;;;;;;;;;;20.40;56.70;;;;;;5069350;28;20659;-68
2023/06/06 08:40:30;;;;;;;;;;;20.40;56.50;;;;;;5059315;28;19924;-68
2023/06/06 08:42:56;;;;;;;;;;;20.40;56.40;;;;;;5057042;28;19931;-68
2023/06/06 08:45:22;;;;;;;;;;;20.50;56.40;;;;;;5052559;28;19925;-68
2023/06/06 08:47:48;;;;;;;;;;;20.50;56.40;;;;;;5072283;28;19920;-74
2023/06/06 08:50:15;;;;;;;;;;;20.50;56.30;;;;;;5067680;28;19951;-71
2023/06/06 08:52:41;;;;;;;;;;;20.50;56.40;;;;;;5052825;28;20286;-68
2023/06/06 08:55:07;;;;;;;;;;;20.50;56.20;;;;;;5072613;28;19932;-68
2023/06/06 08:57:34;;;;;;;;;;;20.60;56.50;;;;;;5057378;28;19970;-70
2023/06/06 09:00:10;;;;;;;;;;;20.60;56.70;;;;;;5054985;28;19967;-65
2023/06/06 09:02:40;;;;;;;;;;;20.70;56.70;;;;;;5072002;28;20073;-68
2023/06/06 09:05:06;;;;;;;;;;;20.70;56.50;;;;;;5066400;28;19959;-67
2023/06/06 09:07:32;;;;;;;;;;;20.70;56.70;;;;;;5073587;28;19924;-68
2023/06/06 09:10:01;;;;;;;;;;;20.80;56.70;;;;;;5053795;28;19973;-67
2023/06/06 09:12:26;;;;;;;;;;;20.80;56.70;;;;;;5070702;28;19924;-69
2023/06/06 09:14:52;;;;;;;;;;;20.80;56.80;;;;;;5046366;28;20571;-67
2023/06/06 09:17:17;;;;;;;;;;;20.80;56.70;;;;;;5064481;28;19965;-67
2023/06/06 09:19:45;;;;;;;;;;;20.80;56.70;;;;;;5052906;28;19949;-74
2023/06/06 09:22:11;;;;;;;;;;;20.80;56.70;;;;;;5051344;28;20022;-75
2023/06/06 09:24:44;;;;;;;;;;;20.80;56.70;;;;;;5068915;28;20391;-72
2023/06/06 09:27:30;;;;;;;;;;;20.90;56.80;;;;;;5059328;28;19935;-72
2023/06/06 09:29:55;;;;;;;;;;;20.90;57.00;;;;;;5059039;28;19959;-74
2023/06/06 09:32:29;;;;;;;;;;;21.00;57.10;;;;;;5069339;28;19924;-73
2023/06/06 09:34:55;;;;;;;;;;;21.00;57.10;;;;;;5050861;28;19936;-72
2023/06/06 09:37:21;;;;;;;;;;;21.10;57.30;;;;;;5057083;28;19928;-71
2023/06/06 09:40:08;;;;;;;;;;;21.10;57.30;;;;;;5050190;28;20433;-66
2023/06/06 09:42:33;;;;;;;;;;;21.10;57.40;;;;;;5067694;28;19928;-66
2023/06/06 09:44:59;;;;;;;;;;;21.10;57.50;;;;;;5071087;28;19924;-70
2023/06/06 09:47:24;;;;;;;;;;;21.10;57.40;;;;;;5056373;28;20038;-70
2023/06/06 09:49:54;;;;;;;;;;;21.20;57.50;;;;;;5052011;28;19935;-69
2023/06/06 09:52:20;;;;;;;;;;;21.20;57.60;;;;;;5068706;28;19924;-70
2023/06/06 09:54:46;;;;;;;;;;;21.20;57.50;;;;;;5054095;28;19928;-68
2023/06/06 09:57:13;;;;;;;;;;;21.20;57.50;;;;;;5074336;28;19924;-68
2023/06/06 09:59:40;;;;;;;;;;;21.20;57.60;;;;;;5062940;28;20006;-70
2023/06/06 10:02:06;;;;;;;;;;;21.20;57.60;;;;;;5064251;28;19920;-67
2023/06/06 10:04:32;;;;;;;;;;;21.20;57.50;;;;;;5078235;28;19931;-66
2023/06/06 10:06:59;;;;;;;;;;;21.20;57.50;;;;;;5058595;28;19927;-65
2023/06/06 10:09:26;;;;;;;;;;;21.20;57.60;;;;;;5077912;28;19931;-65
2023/06/06 10:11:52;;;;;;;;;;;21.20;57.60;;;;;;5061344;28;20835;-66
2023/06/06 10:14:18;;;;;;;;;;;21.20;57.60;;;;;;5057089;28;19969;-66
2023/06/06 10:16:44;;;;;;;;;;;21.20;57.80;;;;;;5077295;28;20360;-66
2023/06/06 10:19:12;;;;;;;;;;;21.30;57.90;;;;;;5059076;28;19924;-67
2023/06/06 10:21:38;;;;;;;;;;;21.30;58.10;;;;;;5072701;28;19974;-67
2023/06/06 10:24:04;;;;;;;;;;;21.30;58.00;;;;;;5069940;28;19970;-68
2023/06/06 10:26:32;;;;;;;;;;;21.30;58.00;;;;;;5074710;28;20582;-66
2023/06/06 10:29:01;;;;;;;;;;;21.30;57.80;;;;;;5061573;28;19924;-70
2023/06/06 10:31:47;;;;;;;;;;;21.30;57.90;;;;;;5076509;28;19935;-64
2023/06/06 10:34:14;;;;;;;;;;;21.30;58.00;;;;;;5075405;28;19978;-64
2023/06/06 10:36:41;;;;;;;;;;;21.30;57.80;;;;;;5073846;28;20060;-63
2023/06/06 10:39:23;;;;;;;;;;;21.30;57.40;;;;;;5077996;28;20423;-64
2023/06/06 10:41:50;;;;;;;;;;;21.30;57.10;;;;;;5061713;28;20387;-64
2023/06/06 10:44:18;;;;;;;;;;;21.30;57.00;;;;;;5071570;28;19974;-64
2023/06/06 10:46:44;;;;;;;;;;;21.30;56.80;;;;;;5070807;28;19985;-69
2023/06/06 10:49:10;;;;;;;;;;;21.40;57.00;;;;;;5075823;28;19931;-66
2023/06/06 10:51:39;;;;;;;;;;;21.40;57.00;;;;;;5058687;28;19931;-65
2023/06/06 10:54:24;;;;;;;;;;;21.40;57.10;;;;;;5075495;28;19925;-67
2023/06/06 10:59:32;;;;;;;;;;;21.40;57.20;;;;;;5055964;28;19935;-70
2023/06/06 11:01:58;;;;;;;;;;;21.30;57.40;;;;;;5051164;28;20012;-66
2023/06/06 11:04:24;;;;;;;;;;;21.40;57.20;;;;;;5056693;28;19925;-66
2023/06/06 11:06:51;;;;;;;;;;;21.40;57.30;;;;;;5056043;28;19978;-66
2023/06/06 11:09:19;;;;;;;;;;;21.40;57.40;;;;;;5057987;28;19930;-66
2023/06/06 11:11:45;;;;;;;;;;;21.40;57.60;;;;;;5073712;28;19929;-65
2023/06/06 11:14:11;;;;;;;;;;;21.40;57.80;;;;;;5071142;28;19925;-70
2023/06/06 11:19:19;;;;;;;;;;;21.50;58.00;;;;;;5088962;27;19924;-69
2023/06/06 11:24:30;;;;;;;;;;;21.70;58.10;;;;;;5090493;27;19926;-70
2023/06/06 11:26:57;;;;;;;;;;;21.70;57.90;;;;;;5069283;28;20580;-70
2023/06/06 11:29:23;;;;;;;;;;;21.70;57.90;;;;;;5069969;28;19935;-70
2023/06/06 11:31:48;;;;;;;;;;;21.70;57.80;;;;;;5069316;28;19924;-71
2023/06/06 11:34:14;;;;;;;;;;;21.80;57.60;;;;;;5070225;28;19920;-69
2023/06/06 11:36:41;;;;;;;;;;;21.80;57.70;;;;;;5071212;28;19960;-70
2023/06/06 11:39:07;;;;;;;;;;;21.80;57.50;;;;;;5063981;28;20020;-63
2023/06/06 11:44:17;;;;;;;;;;;21.90;57.40;;;;;;5088282;27;19924;-66
2023/06/06 11:49:23;;;;;;;;;;;21.80;57.40;;;;;;5082009;27;19920;-69
2023/06/06 11:51:57;;;;;;;;;;;21.80;57.50;;;;;;5051240;28;19932;-72
2023/06/06 11:54:23;;;;;;;;;;;21.80;57.60;;;;;;5050373;28;20027;-73
2023/06/06 11:56:50;;;;;;;;;;;21.80;57.50;;;;;;5081988;28;20001;-71
2023/06/06 11:59:16;;;;;;;;;;;21.80;57.90;;;;;;5053952;28;20075;-70
2023/06/06 12:01:46;;;;;;;;;;;21.80;58.00;;;;;;5051555;28;20051;-69
2023/06/06 12:04:11;;;;;;;;;;;21.80;58.30;;;;;;5082828;28;19924;-73
2023/06/06 12:06:43;;;;;;;;;;;21.80;58.10;;;;;;5049713;28;19924;-75
2023/06/06 12:09:11;;;;;;;;;;;21.80;58.00;;;;;;5049655;28;19929;-68
2023/06/06 12:11:37;;;;;;;;;;;21.80;58.00;;;;;;5062503;28;19940;-72
2023/06/06 12:14:10;;;;;;;;;;;21.90;58.40;;;;;;5048938;28;19925;-70
2023/06/06 12:16:35;;;;;;;;;;;21.80;58.40;;;;;;5046884;28;19935;-67
2023/06/06 12:19:01;;;;;;;;;;;21.80;58.50;;;;;;5044276;28;19921;-66
2023/06/06 12:21:26;;;;;;;;;;;21.90;58.50;;;;;;5074663;28;19924;-73
2023/06/06 12:23:52;;;;;;;;;;;21.90;58.80;;;;;;5047624;28;19929;-77
2023/06/06 12:26:18;;;;;;;;;;;21.90;59.60;;;;;;5047659;28;19920;-73
2023/06/06 12:28:59;;;;;;;;;;;21.90;59.00;;;;;;5051276;28;19929;-72
2023/06/06 12:31:26;;;;;;;;;;;22.00;59.00;;;;;;5051386;28;19929;-64
2023/06/06 12:33:52;;;;;;;;;;;22.00;58.60;;;;;;5084080;28;19925;-72
2023/06/06 12:36:19;;;;;;;;;;;22.20;58.70;;;;;;5083239;28;19928;-74
2023/06/06 12:39:01;;;;;;;;;;;22.10;58.30;;;;;;5049578;28;20007;-69
2023/06/06 12:41:35;;;;;;;;;;;22.20;58.20;;;;;;5051462;28;19924;-67
2023/06/06 12:44:06;;;;;;;;;;;22.10;58.00;;;;;;5079494;28;19924;-66
2023/06/06 12:46:32;;;;;;;;;;;22.10;58.20;;;;;;5054270;28;20019;-71
2023/06/06 12:48:57;;;;;;;;;;;22.10;58.20;;;;;;5052152;28;19937;-68
2023/06/06 12:51:23;;;;;;;;;;;22.10;58.20;;;;;;5080705;28;19936;-67
2023/06/06 12:53:48;;;;;;;;;;;22.00;58.00;;;;;;5050455;28;19936;-67
2023/06/06 12:56:14;;;;;;;;;;;22.10;58.00;;;;;;5046286;28;19936;-71
2023/06/06 12:58:39;;;;;;;;;;;22.00;58.00;;;;;;5039003;28;20023;-71
2023/06/06 13:01:04;;;;;;;;;;;22.00;58.00;;;;;;5032803;28;19948;-71
2023/06/06 13:03:30;;;;;;;;;;;22.00;57.90;;;;;;5072034;28;19971;-71
2023/06/06 13:05:56;;;;;;;;;;;22.00;57.90;;;;;;5039010;28;19970;-71
2023/06/06 13:08:21;;;;;;;;;;;22.00;57.90;;;;;;5035739;28;19925;-72
2023/06/06 13:10:47;;;;;;;;;;;22.00;57.80;;;;;;5040821;28;19921;-71
2023/06/06 13:13:12;;;;;;;;;;;22.00;57.80;;;;;;5037743;28;19948;-70
2023/06/06 13:15:38;;;;;;;;;;;22.00;57.70;;;;;;5045651;28;19940;-65
2023/06/06 13:18:04;;;;;;;;;;;22.00;57.30;;;;;;5040605;28;19932;-75
2023/06/06 13:20:31;;;;;;;;;;;22.00;57.30;;;;;;5041746;28;19966;-66
2023/06/06 13:22:57;;;;;;;;;;;22.10;57.40;;;;;;5038663;28;20390;-70
2023/06/06 13:25:22;;;;;;;;;;;22.00;57.40;;;;;;5040690;28;19925;-75
2023/06/06 13:27:48;;;;;;;;;;;22.10;57.60;;;;;;5047765;28;20075;-76
2023/06/06 13:30:14;;;;;;;;;;;22.10;57.10;;;;;;5039551;28;19920;-71
2023/06/06 13:32:39;;;;;;;;;;;22.10;57.00;;;;;;5039167;28;19920;-72
2023/06/06 13:35:05;;;;;;;;;;;22.10;56.90;;;;;;5039481;28;19935;-72
2023/06/06 13:37:31;;;;;;;;;;;22.10;56.90;;;;;;5042755;28;20338;-72
2023/06/06 13:39:56;;;;;;;;;;;22.10;56.90;;;;;;5040089;28;19928;-72
2023/06/06 13:42:22;;;;;;;;;;;22.10;56.90;;;;;;5041795;28;20380;-72
2023/06/06 13:44:47;;;;;;;;;;;22.10;56.90;;;;;;5043950;28;19928;-72
2023/06/06 13:47:13;;;;;;;;;;;22.10;56.90;;;;;;5040270;28;20011;-72
2023/06/06 13:49:39;;;;;;;;;;;22.00;56.80;;;;;;5042670;28;20008;-72
2023/06/06 13:52:05;;;;;;;;;;;22.00;56.80;;;;;;5049373;28;19920;-71
2023/06/06 13:54:31;;;;;;;;;;;22.00;56.70;;;;;;5052930;28;20399;-79
2023/06/06 13:57:00;;;;;;;;;;;22.00;56.80;;;;;;5050499;28;19924;-72
2023/06/06 13:59:26;;;;;;;;;;;22.00;56.80;;;;;;5052905;28;19928;-78
2023/06/06 14:01:52;;;;;;;;;;;21.90;56.70;;;;;;5052231;28;19927;-78
2023/06/06 14:04:17;;;;;;;;;;;22.00;56.70;;;;;;5081221;28;19955;-72
2023/06/06 14:06:43;;;;;;;;;;;21.90;56.60;;;;;;5051189;28;20532;-72
2023/06/06 14:09:09;;;;;;;;;;;21.90;56.60;;;;;;5068862;28;20802;-72
2023/06/06 14:11:35;;;;;;;;;;;22.00;56.60;;;;;;5102079;28;19928;-72
2023/06/06 14:14:01;;;;;;;;;;;21.90;56.60;;;;;;5072086;28;20332;-72
2023/06/06 14:16:27;;;;;;;;;;;22.00;56.60;;;;;;5073404;28;19926;-72
2023/06/06 14:18:54;;;;;;;;;;;21.90;56.50;;;;;;5044870;28;19925;-73
2023/06/06 14:21:28;;;;;;;;;;;21.90;56.50;;;;;;5080257;28;19920;-72
2023/06/06 14:23:54;;;;;;;;;;;21.90;56.50;;;;;;5066474;28;19921;-72
2023/06/06 14:26:21;;;;;;;;;;;21.90;56.50;;;;;;5051307;28;19920;-72
2023/06/06 14:28:49;;;;;;;;;;;22.00;56.50;;;;;;5059660;28;19920;-72
2023/06/06 14:31:15;;;;;;;;;;;21.90;56.40;;;;;;5061351;28;19931;-72